createdAt,value
2018-08-20T00:00:31.410Z,13.5
2018-08-20T00:01:31.506Z,13.6
2018-08-20T00:02:31.397Z,13.43
2018-08-20T00:03:31.403Z,13.49
2018-08-20T00:04:31.461Z,13.33
2018-08-20T00:05:31.436Z,13.34
2018-08-20T00:06:31.419Z,13.47
2018-08-20T00:07:31.422Z,13.6
2018-08-20T00:08:31.594Z,13.52
2018-08-20T00:09:31.455Z,13.69
2018-08-20T00:10:31.446Z,13.74
2018-08-20T00:11:31.548Z,13.76
2018-08-20T00:12:31.430Z,13.73
2018-08-20T00:13:31.436Z,13.69
2018-08-20T00:14:31.434Z,13.76
2018-08-20T00:15:31.450Z,13.7
2018-08-20T00:16:31.487Z,13.77
2018-08-20T00:17:31.436Z,13.76
2018-08-20T00:18:31.491Z,13.7
2018-08-20T00:19:31.471Z,13.55
2018-08-20T00:20:31.438Z,13.77
2018-08-20T00:21:31.761Z,13.82
2018-08-20T00:22:31.529Z,13.83
2018-08-20T00:23:31.545Z,13.78
2018-08-20T00:24:31.427Z,13.77
2018-08-20T00:25:31.564Z,13.74
2018-08-20T00:26:31.412Z,13.79
2018-08-20T00:27:31.456Z,13.66
2018-08-20T00:28:31.409Z,13.56
2018-08-20T00:29:31.467Z,13.58
2018-08-20T00:30:31.523Z,13.64
2018-08-20T00:31:31.554Z,13.48
2018-08-20T00:32:31.446Z,13.46
2018-08-20T00:33:31.556Z,13.68
2018-08-20T00:34:31.426Z,13.75
2018-08-20T00:35:31.537Z,13.71
2018-08-20T00:36:31.418Z,13.72
2018-08-20T00:37:31.401Z,13.74
2018-08-20T00:38:31.454Z,13.75
2018-08-20T00:39:31.518Z,13.74
2018-08-20T00:40:31.485Z,13.71
2018-08-20T00:41:31.683Z,13.72
2018-08-20T00:42:31.639Z,13.74
2018-08-20T00:43:31.530Z,13.74
2018-08-20T00:44:31.438Z,13.59
2018-08-20T00:45:31.545Z,13.67
2018-08-20T00:46:31.453Z,13.53
2018-08-20T00:47:32.117Z,13.6
2018-08-20T00:48:31.398Z,13.57
2018-08-20T00:49:31.536Z,13.65
2018-08-20T00:50:31.627Z,13.42
2018-08-20T00:51:31.487Z,13.35
2018-08-20T00:52:31.501Z,13.31
2018-08-20T00:53:31.441Z,13.44
2018-08-20T00:54:31.423Z,13.68
2018-08-20T00:55:31.545Z,13.55
2018-08-20T00:56:31.448Z,13.67
2018-08-20T00:57:31.438Z,13.55
2018-08-20T00:58:31.471Z,13.49
2018-08-20T00:59:32.229Z,13.53
2018-08-20T01:00:31.789Z,13.61
2018-08-20T01:01:31.421Z,13.58
2018-08-20T01:02:31.427Z,13.6
2018-08-20T01:03:31.421Z,13.62
2018-08-20T01:04:31.496Z,13.55
2018-08-20T01:05:31.498Z,13.66
2018-08-20T01:06:31.428Z,13.56
2018-08-20T01:07:31.413Z,13.45
2018-08-20T01:08:31.407Z,13.43
2018-08-20T01:09:31.411Z,13.45
2018-08-20T01:10:31.452Z,13.52
2018-08-20T01:11:31.388Z,13.62
2018-08-20T01:12:31.388Z,13.65
2018-08-20T01:13:31.435Z,13.64
2018-08-20T01:14:31.398Z,13.57
2018-08-20T01:15:31.386Z,13.58
2018-08-20T01:16:31.468Z,13.4
2018-08-20T01:17:31.528Z,13.55
2018-08-20T01:18:31.502Z,13.56
2018-08-20T01:19:31.508Z,13.6
2018-08-20T01:20:31.496Z,13.5
2018-08-20T01:21:31.396Z,13.31
2018-08-20T01:22:31.623Z,13.48
2018-08-20T01:23:31.462Z,13.53
2018-08-20T01:24:31.574Z,13.55
2018-08-20T01:25:32.151Z,13.47
2018-08-20T01:26:31.445Z,13.47
2018-08-20T01:27:31.828Z,13.51
2018-08-20T01:28:31.439Z,13.41
2018-08-20T01:29:31.518Z,13.57
2018-08-20T01:30:31.589Z,13.44
2018-08-20T01:31:31.579Z,13.52
2018-08-20T01:32:31.466Z,13.62
2018-08-20T01:33:31.556Z,13.67
2018-08-20T01:34:31.567Z,13.56
2018-08-20T01:35:31.602Z,13.52
2018-08-20T01:36:31.618Z,13.41
2018-08-20T01:37:31.443Z,13.35
2018-08-20T01:38:31.407Z,13.37
2018-08-20T01:39:31.577Z,13.55
2018-08-20T01:40:31.468Z,13.58
2018-08-20T01:41:31.380Z,13.6
2018-08-20T01:42:31.485Z,13.48
2018-08-20T01:43:31.400Z,13.53
2018-08-20T01:44:31.713Z,13.58
2018-08-20T01:45:31.423Z,13.58
2018-08-20T01:46:31.423Z,13.55
2018-08-20T01:47:31.392Z,13.53
2018-08-20T01:48:31.515Z,13.45
2018-08-20T01:49:31.406Z,13.55
2018-08-20T01:50:31.413Z,13.51
2018-08-20T01:51:31.627Z,13.45
2018-08-20T01:52:31.444Z,13.43
2018-08-20T01:53:31.449Z,13.43
2018-08-20T01:54:31.442Z,13.39
2018-08-20T01:55:31.446Z,13.43
2018-08-20T01:56:31.470Z,13.55
2018-08-20T01:57:31.697Z,13.63
2018-08-20T01:58:32.316Z,13.46
2018-08-20T01:59:31.627Z,13.42
2018-08-20T02:00:31.593Z,13.54
2018-08-20T02:01:31.424Z,13.48
2018-08-20T02:02:31.564Z,13.54
2018-08-20T02:03:31.635Z,13.58
2018-08-20T02:04:31.580Z,13.64
2018-08-20T02:05:31.521Z,13.53
2018-08-20T02:06:31.567Z,13.54
2018-08-20T02:07:32.251Z,13.54
2018-08-20T02:08:31.513Z,13.61
2018-08-20T02:09:31.828Z,13.53
2018-08-20T02:10:31.459Z,13.37
2018-08-20T02:11:31.541Z,13.38
2018-08-20T02:12:31.500Z,13.39
2018-08-20T02:13:31.579Z,13.41
2018-08-20T02:14:31.541Z,13.48
2018-08-20T02:15:31.495Z,13.45
2018-08-20T02:16:31.474Z,13.53
2018-08-20T02:17:31.618Z,13.52
2018-08-20T02:18:31.922Z,13.49
2018-08-20T02:19:31.473Z,13.47
2018-08-20T02:20:31.620Z,13.51
2018-08-20T02:21:31.466Z,13.45
2018-08-20T02:22:31.468Z,13.39
2018-08-20T02:23:31.386Z,13.59
2018-08-20T02:24:31.442Z,13.61
2018-08-20T02:25:31.412Z,13.55
2018-08-20T02:26:31.631Z,13.42
2018-08-20T02:27:31.792Z,13.47
2018-08-20T02:28:31.444Z,13.52
2018-08-20T02:29:31.515Z,13.4
2018-08-20T02:30:31.393Z,13.51
2018-08-20T02:31:31.379Z,13.53
2018-08-20T02:32:31.475Z,13.33
2018-08-20T02:33:31.793Z,13.39
2018-08-20T02:34:31.597Z,13.56
2018-08-20T02:35:31.497Z,13.49
2018-08-20T02:36:31.877Z,13.51
2018-08-20T02:37:31.455Z,13.38
2018-08-20T02:38:31.504Z,13.31
2018-08-20T02:39:31.429Z,13.47
2018-08-20T02:40:32.109Z,13.36
2018-08-20T02:41:31.370Z,13.39
2018-08-20T02:42:31.547Z,13.5
2018-08-20T02:43:31.380Z,13.52
2018-08-20T02:44:31.525Z,13.46
2018-08-20T02:45:31.504Z,13.54
2018-08-20T02:46:31.477Z,13.55
2018-08-20T02:47:31.452Z,13.45
2018-08-20T02:48:31.370Z,13.5
2018-08-20T02:49:31.430Z,13.59
2018-08-20T02:50:31.423Z,13.41
2018-08-20T02:51:31.376Z,13.38
2018-08-20T02:52:31.608Z,13.57
2018-08-20T02:53:31.386Z,13.57
2018-08-20T02:54:31.368Z,13.56
2018-08-20T02:55:31.358Z,13.4
2018-08-20T02:56:31.397Z,13.39
2018-08-20T02:57:31.397Z,13.46
2018-08-20T02:58:31.443Z,13.59
2018-08-20T02:59:31.351Z,13.49
2018-08-20T03:00:31.472Z,13.44
2018-08-20T03:01:31.389Z,13.36
2018-08-20T03:02:31.436Z,13.3
2018-08-20T03:03:31.737Z,13.4
2018-08-20T03:04:31.489Z,13.46
2018-08-20T03:05:31.463Z,13.4
2018-08-20T03:06:31.413Z,13.46
2018-08-20T03:07:31.491Z,13.49
2018-08-20T03:08:31.413Z,13.59
2018-08-20T03:09:31.481Z,13.52
2018-08-20T03:10:31.367Z,13.53
2018-08-20T03:11:31.771Z,13.34
2018-08-20T03:12:31.454Z,13.41
2018-08-20T03:13:31.624Z,13.48
2018-08-20T03:14:31.516Z,13.55
2018-08-20T03:15:31.420Z,13.41
2018-08-20T03:16:32.152Z,13.41
2018-08-20T03:17:32.121Z,13.28
2018-08-20T03:18:31.388Z,13.28
2018-08-20T03:19:31.572Z,13.33
2018-08-20T03:20:31.478Z,13.24
2018-08-20T03:21:31.635Z,13.41
2018-08-20T03:22:32.116Z,13.24
2018-08-20T03:23:31.516Z,13.49
2018-08-20T03:24:31.579Z,13.56
2018-08-20T03:25:31.418Z,13.36
2018-08-20T03:26:31.383Z,13.54
2018-08-20T03:27:31.407Z,13.47
2018-08-20T03:28:31.555Z,13.46
2018-08-20T03:29:31.438Z,13.34
2018-08-20T03:30:31.663Z,13.31
2018-08-20T03:31:31.853Z,13.44
2018-08-20T03:32:31.606Z,13.52
2018-08-20T03:33:31.576Z,13.59
2018-08-20T03:34:31.426Z,13.59
2018-08-20T03:35:31.508Z,13.29
2018-08-20T03:36:31.470Z,13.3
2018-08-20T03:37:31.437Z,13.58
2018-08-20T03:38:31.427Z,13.56
2018-08-20T03:39:31.412Z,13.5
2018-08-20T03:40:31.394Z,13.44
2018-08-20T03:41:31.720Z,13.49
2018-08-20T03:42:31.476Z,13.43
2018-08-20T03:43:31.625Z,13.39
2018-08-20T03:44:31.616Z,13.31
2018-08-20T03:45:31.512Z,13.46
2018-08-20T03:46:31.445Z,13.3
2018-08-20T03:47:31.419Z,13.43
2018-08-20T03:48:31.607Z,13.5
2018-08-20T03:49:31.658Z,13.52
2018-08-20T03:50:32.117Z,13.55
2018-08-20T03:51:31.691Z,13.51
2018-08-20T03:52:31.575Z,13.4
2018-08-20T03:53:31.405Z,13.47
2018-08-20T03:54:31.436Z,13.37
2018-08-20T03:55:31.396Z,13.49
2018-08-20T03:56:31.407Z,13.52
2018-08-20T03:57:31.379Z,13.46
2018-08-20T03:58:31.417Z,13.44
2018-08-20T03:59:31.389Z,13.47
2018-08-20T04:00:31.525Z,13.32
2018-08-20T04:01:31.403Z,13.34
2018-08-20T04:02:31.343Z,13.3
2018-08-20T04:03:31.426Z,13.46
2018-08-20T04:04:31.391Z,13.52
2018-08-20T04:05:31.442Z,13.43
2018-08-20T04:06:31.446Z,13.42
2018-08-20T04:07:31.398Z,13.44
2018-08-20T04:08:31.358Z,13.46
2018-08-20T04:09:31.470Z,13.5
2018-08-20T04:10:31.404Z,13.38
2018-08-20T04:11:31.380Z,13.5
2018-08-20T04:12:31.357Z,13.47
2018-08-20T04:13:31.402Z,13.44
2018-08-20T04:14:31.424Z,13.45
2018-08-20T04:15:31.368Z,13.31
2018-08-20T04:16:31.402Z,13.42
2018-08-20T04:17:31.434Z,13.28
2018-08-20T04:18:31.498Z,13.37
2018-08-20T04:19:31.388Z,13.34
2018-08-20T04:20:31.439Z,13.24
2018-08-20T04:21:31.369Z,13.17
2018-08-20T04:22:31.337Z,13.36
2018-08-20T04:23:31.409Z,13.33
2018-08-20T04:24:31.380Z,13.32
2018-08-20T04:25:31.435Z,13.32
2018-08-20T04:26:31.371Z,13.22
2018-08-20T04:27:31.703Z,13.2
2018-08-20T04:28:31.384Z,13.08
2018-08-20T04:29:31.398Z,13.09
2018-08-20T04:30:31.631Z,13.16
2018-08-20T04:31:31.362Z,13.18
2018-08-20T04:32:31.664Z,13.23
2018-08-20T04:33:31.366Z,13.33
2018-08-20T04:34:31.392Z,13.32
2018-08-20T04:35:31.359Z,13.22
2018-08-20T04:36:32.028Z,13.41
2018-08-20T04:37:31.486Z,13.44
2018-08-20T04:38:31.445Z,13.37
2018-08-20T04:39:31.363Z,13.33
2018-08-20T04:40:31.379Z,13.3
2018-08-20T04:41:31.542Z,13.3
2018-08-20T04:42:31.365Z,13.25
2018-08-20T04:43:31.455Z,13.15
2018-08-20T04:44:31.389Z,13.14
2018-08-20T04:45:31.488Z,13.15
2018-08-20T04:46:31.444Z,13.07
2018-08-20T04:47:31.423Z,13.09
2018-08-20T04:48:31.604Z,13.13
2018-08-20T04:49:31.397Z,13.05
2018-08-20T04:50:33.516Z,13.14
2018-08-20T04:51:32.668Z,13.27
2018-08-20T04:52:31.570Z,13.08
2018-08-20T04:53:31.436Z,13.15
2018-08-20T04:54:31.598Z,13.14
2018-08-20T04:55:31.399Z,13.17
2018-08-20T04:56:31.481Z,13.24
2018-08-20T04:57:31.379Z,13.22
2018-08-20T04:58:31.426Z,13.08
2018-08-20T04:59:31.347Z,13.07
2018-08-20T05:00:31.372Z,13.18
2018-08-20T05:01:31.537Z,13.01
2018-08-20T05:02:31.449Z,13.03
2018-08-20T05:03:31.567Z,13.24
2018-08-20T05:04:31.523Z,13.26
2018-08-20T05:05:31.465Z,13.2
2018-08-20T05:06:31.458Z,13.19
2018-08-20T05:07:31.348Z,13.15
2018-08-20T05:08:31.574Z,13.18
2018-08-20T05:09:31.433Z,13.16
2018-08-20T05:10:31.518Z,13.15
2018-08-20T05:11:31.493Z,13.25
2018-08-20T05:12:31.485Z,13.17
2018-08-20T05:13:31.332Z,13.23
2018-08-20T05:14:31.405Z,13.18
2018-08-20T05:15:31.471Z,13.28
2018-08-20T05:16:31.376Z,13.27
2018-08-20T05:17:31.355Z,13.24
2018-08-20T05:18:31.335Z,13.24
2018-08-20T05:19:31.380Z,13.26
2018-08-20T05:20:31.327Z,13.24
2018-08-20T05:21:31.375Z,13.33
2018-08-20T05:22:31.380Z,13.2
2018-08-20T05:23:31.373Z,13.24
2018-08-20T05:24:31.428Z,13.37
2018-08-20T05:25:31.354Z,13.4
2018-08-20T05:26:31.393Z,13.31
2018-08-20T05:27:31.344Z,13.27
2018-08-20T05:28:31.392Z,13.34
2018-08-20T05:29:32.242Z,13.34
2018-08-20T05:30:31.363Z,13.34
2018-08-20T05:31:31.347Z,13.42
2018-08-20T05:32:31.360Z,13.61
2018-08-20T05:33:31.364Z,13.53
2018-08-20T05:34:31.371Z,13.37
2018-08-20T05:35:31.331Z,13.6
2018-08-20T05:36:31.407Z,13.5
2018-08-20T05:37:31.321Z,13.58
2018-08-20T05:38:31.529Z,13.48
2018-08-20T05:39:31.788Z,13.58
2018-08-20T05:40:31.395Z,13.37
2018-08-20T05:41:31.430Z,13.51
2018-08-20T05:42:31.411Z,13.45
2018-08-20T05:43:31.432Z,13.45
2018-08-20T05:44:31.762Z,13.66
2018-08-20T05:45:31.374Z,13.68
2018-08-20T05:46:31.448Z,13.76
2018-08-20T05:47:31.386Z,13.61
2018-08-20T05:48:31.507Z,13.48
2018-08-20T05:49:31.483Z,13.63
2018-08-20T05:50:31.764Z,13.52
2018-08-20T05:51:31.340Z,13.65
2018-08-20T05:52:31.819Z,13.63
2018-08-20T05:53:31.359Z,13.7
2018-08-20T05:54:31.511Z,13.59
2018-08-20T05:55:31.322Z,13.73
2018-08-20T05:56:31.476Z,13.76
2018-08-20T05:57:31.425Z,13.79
2018-08-20T05:58:31.487Z,13.75
2018-08-20T05:59:31.715Z,13.68
2018-08-20T06:00:31.323Z,13.66
2018-08-20T06:01:31.371Z,13.75
2018-08-20T06:02:31.485Z,13.69
2018-08-20T06:03:31.315Z,13.71
2018-08-20T06:04:31.368Z,13.97
2018-08-20T06:05:32.284Z,13.92
2018-08-20T06:06:31.421Z,13.84
2018-08-20T06:07:31.330Z,13.69
2018-08-20T06:08:31.361Z,13.97
2018-08-20T06:09:31.453Z,13.88
2018-08-20T06:10:31.453Z,13.85
2018-08-20T06:11:31.789Z,13.95
2018-08-20T06:12:31.354Z,13.93
2018-08-20T06:13:31.523Z,13.97
2018-08-20T06:14:32.213Z,13.92
2018-08-20T06:15:31.317Z,13.94
2018-08-20T06:16:31.367Z,13.91
2018-08-20T06:17:31.354Z,13.89
2018-08-20T06:18:31.381Z,13.96
2018-08-20T06:19:32.002Z,13.85
2018-08-20T06:20:31.442Z,13.91
2018-08-20T06:21:31.463Z,13.9
2018-08-20T06:22:32.681Z,13.98
2018-08-20T06:23:31.338Z,13.94
2018-08-20T06:24:31.327Z,13.86
2018-08-20T06:25:31.428Z,13.96
2018-08-20T06:26:31.320Z,14.03
2018-08-20T06:27:31.310Z,13.92
2018-08-20T06:28:31.739Z,14.05
2018-08-20T06:29:31.317Z,14
2018-08-20T06:30:31.331Z,14.03
2018-08-20T06:31:31.757Z,13.96
2018-08-20T06:32:31.339Z,14.01
2018-08-20T06:33:31.342Z,14.05
2018-08-20T06:34:31.348Z,13.99
2018-08-20T06:35:31.356Z,13.96
2018-08-20T06:36:31.399Z,14.08
2018-08-20T06:37:31.423Z,14.12
2018-08-20T06:38:31.312Z,14
2018-08-20T06:39:31.341Z,13.99
2018-08-20T06:40:31.334Z,14.07
2018-08-20T06:41:31.866Z,14.08
2018-08-20T06:42:31.368Z,14.16
2018-08-20T06:43:31.373Z,14.07
2018-08-20T06:44:31.362Z,14.13
2018-08-20T06:45:34.274Z,14.11
2018-08-20T06:46:31.390Z,14.02
2018-08-20T06:47:31.352Z,14.14
2018-08-20T06:48:32.169Z,14.14
2018-08-20T06:49:32.049Z,14.17
2018-08-20T06:50:31.327Z,14.22
2018-08-20T06:51:31.335Z,14.21
2018-08-20T06:52:31.398Z,14.17
2018-08-20T06:53:31.461Z,14.19
2018-08-20T06:54:31.806Z,14.13
2018-08-20T06:55:31.356Z,14.18
2018-08-20T06:56:31.386Z,14.27
2018-08-20T06:57:31.541Z,14.37
2018-08-20T06:58:31.346Z,14.26
2018-08-20T06:59:31.401Z,14.24
2018-08-20T07:00:31.317Z,14.31
2018-08-20T07:01:31.375Z,14.28
2018-08-20T07:02:31.426Z,14.16
2018-08-20T07:03:31.347Z,14.12
2018-08-20T07:04:31.335Z,14.2
2018-08-20T07:05:31.367Z,14.29
2018-08-20T07:06:32.003Z,14.24
2018-08-20T07:07:31.423Z,14.24
2018-08-20T07:08:31.458Z,14.37
2018-08-20T07:09:31.321Z,14.35
2018-08-20T07:10:31.462Z,14.33
2018-08-20T07:11:31.420Z,14.31
2018-08-20T07:12:31.515Z,14.37
2018-08-20T07:13:31.359Z,14.37
2018-08-20T07:14:31.502Z,14.44
2018-08-20T07:15:31.359Z,14.49
2018-08-20T07:16:31.385Z,14.46
2018-08-20T07:17:32.113Z,14.44
2018-08-20T07:18:31.659Z,14.51
2018-08-20T07:19:31.414Z,14.43
2018-08-20T07:20:31.341Z,14.43
2018-08-20T07:21:31.450Z,14.39
2018-08-20T07:22:31.397Z,14.35
2018-08-20T07:23:32.357Z,14.41
2018-08-20T07:24:32.174Z,14.5
2018-08-20T07:25:31.334Z,14.51
2018-08-20T07:26:31.465Z,14.48
2018-08-20T07:27:31.302Z,14.41
2018-08-20T07:28:31.339Z,14.42
2018-08-20T07:29:31.328Z,14.52
2018-08-20T07:30:31.303Z,14.56
2018-08-20T07:31:31.381Z,14.5
2018-08-20T07:32:31.311Z,14.6
2018-08-20T07:33:31.540Z,14.73
2018-08-20T07:34:31.322Z,14.65
2018-08-20T07:35:31.560Z,14.57
2018-08-20T07:36:31.314Z,14.68
2018-08-20T07:37:31.357Z,14.68
2018-08-20T07:38:31.508Z,14.68
2018-08-20T07:39:31.439Z,14.62
2018-08-20T07:40:31.548Z,14.75
2018-08-20T07:41:31.390Z,14.75
2018-08-20T07:42:31.874Z,14.88
2018-08-20T07:43:31.316Z,14.87
2018-08-20T07:44:31.346Z,14.85
2018-08-20T07:45:31.477Z,14.82
2018-08-20T07:46:31.431Z,14.81
2018-08-20T07:47:31.357Z,14.81
2018-08-20T07:48:31.321Z,14.74
2018-08-20T07:49:31.347Z,14.71
2018-08-20T07:50:31.334Z,14.71
2018-08-20T07:51:31.316Z,14.75
2018-08-20T07:52:31.366Z,14.71
2018-08-20T07:53:31.306Z,14.95
2018-08-20T07:54:31.291Z,14.94
2018-08-20T07:55:31.562Z,14.88
2018-08-20T07:56:31.302Z,14.85
2018-08-20T07:57:31.357Z,14.93
2018-08-20T07:58:31.388Z,14.86
2018-08-20T07:59:31.298Z,14.87
2018-08-20T08:00:31.322Z,14.9
2018-08-20T08:01:31.331Z,14.91
2018-08-20T08:02:31.356Z,14.9
2018-08-20T08:03:31.292Z,14.84
2018-08-20T08:04:31.314Z,14.94
2018-08-20T08:05:31.393Z,15.03
2018-08-20T08:06:31.335Z,15.12
2018-08-20T08:07:31.289Z,15.06
2018-08-20T08:08:31.300Z,14.94
2018-08-20T08:09:31.397Z,14.98
2018-08-20T08:10:31.340Z,14.99
2018-08-20T08:11:31.373Z,15.09
2018-08-20T08:12:31.300Z,15.1
2018-08-20T08:13:31.419Z,15.12
2018-08-20T08:14:31.300Z,15
2018-08-20T08:15:31.335Z,14.91
2018-08-20T08:16:31.353Z,14.98
2018-08-20T08:17:31.518Z,15.18
2018-08-20T08:18:31.307Z,15.29
2018-08-20T08:19:31.785Z,15.26
2018-08-20T08:20:31.327Z,15.07
2018-08-20T08:21:31.358Z,15.15
2018-08-20T08:22:31.360Z,15.29
2018-08-20T08:23:31.290Z,15.35
2018-08-20T08:24:31.340Z,15.34
2018-08-20T08:25:31.430Z,15.28
2018-08-20T08:26:31.784Z,15.27
2018-08-20T08:27:31.344Z,15.26
2018-08-20T08:28:31.331Z,15.26
2018-08-20T08:29:31.812Z,15.17
2018-08-20T08:30:31.376Z,15.23
2018-08-20T08:31:31.298Z,15.28
2018-08-20T08:32:31.413Z,15.22
2018-08-20T08:33:31.309Z,15.27
2018-08-20T08:34:31.436Z,15.26
2018-08-20T08:35:31.346Z,15.2
2018-08-20T08:36:31.465Z,15.17
2018-08-20T08:37:31.310Z,15.33
2018-08-20T08:38:31.343Z,15.18
2018-08-20T08:39:31.944Z,15.29
2018-08-20T08:40:31.318Z,15.25
2018-08-20T08:41:31.278Z,15.2
2018-08-20T08:42:31.364Z,15.31
2018-08-20T08:43:31.326Z,15.35
2018-08-20T08:44:31.322Z,15.22
2018-08-20T08:45:31.269Z,15.29
2018-08-20T08:46:31.343Z,15.29
2018-08-20T08:47:31.284Z,15.35
2018-08-20T08:48:31.498Z,15.51
2018-08-20T08:49:31.799Z,15.49
2018-08-20T08:50:31.303Z,15.46
2018-08-20T08:51:31.295Z,15.57
2018-08-20T08:52:31.301Z,15.46
2018-08-20T08:53:31.371Z,15.45
2018-08-20T08:54:31.279Z,15.49
2018-08-20T08:55:31.402Z,15.55
2018-08-20T08:56:31.382Z,15.54
2018-08-20T08:57:31.291Z,15.5
2018-08-20T08:58:31.452Z,15.51
2018-08-20T08:59:31.747Z,15.64
2018-08-20T09:00:31.749Z,15.65
2018-08-20T09:01:31.350Z,15.86
2018-08-20T09:02:31.314Z,15.69
2018-08-20T09:03:31.350Z,15.65
2018-08-20T09:04:31.409Z,15.66
2018-08-20T09:05:31.388Z,15.58
2018-08-20T09:06:31.312Z,15.82
2018-08-20T09:07:31.294Z,15.79
2018-08-20T09:08:31.280Z,15.65
2018-08-20T09:09:31.704Z,15.78
2018-08-20T09:10:31.307Z,15.39
2018-08-20T09:11:31.319Z,15.44
2018-08-20T09:12:31.335Z,15.54
2018-08-20T09:13:31.284Z,15.45
2018-08-20T09:14:31.283Z,15.49
2018-08-20T09:15:31.265Z,15.39
2018-08-20T09:16:31.313Z,15.49
2018-08-20T09:17:31.291Z,15.58
2018-08-20T09:18:31.309Z,15.56
2018-08-20T09:19:31.805Z,15.62
2018-08-20T09:20:31.561Z,15.49
2018-08-20T09:21:31.313Z,15.43
2018-08-20T09:22:31.666Z,15.47
2018-08-20T09:23:31.291Z,15.69
2018-08-20T09:24:31.281Z,15.8
2018-08-20T09:25:31.280Z,15.67
2018-08-20T09:26:31.285Z,15.73
2018-08-20T09:27:31.282Z,15.92
2018-08-20T09:28:31.370Z,15.74
2018-08-20T09:29:31.779Z,15.61
2018-08-20T09:30:31.306Z,15.81
2018-08-20T09:31:31.445Z,15.66
2018-08-20T09:32:31.311Z,15.59
2018-08-20T09:33:31.374Z,15.58
2018-08-20T09:34:31.429Z,15.73
2018-08-20T09:35:31.412Z,15.7
2018-08-20T09:36:31.460Z,15.65
2018-08-20T09:37:31.309Z,15.52
2018-08-20T09:38:31.300Z,15.6
2018-08-20T09:39:31.748Z,15.52
2018-08-20T09:40:31.271Z,15.52
2018-08-20T09:41:31.345Z,15.42
2018-08-20T09:42:31.259Z,15.48
2018-08-20T09:43:31.463Z,15.65
2018-08-20T09:44:31.300Z,15.78
2018-08-20T09:45:31.336Z,15.73
2018-08-20T09:46:31.364Z,15.55
2018-08-20T09:47:31.277Z,15.59
2018-08-20T09:48:31.608Z,15.56
2018-08-20T09:49:31.769Z,15.59
2018-08-20T09:50:31.276Z,15.47
2018-08-20T09:51:31.396Z,15.31
2018-08-20T09:52:31.378Z,15.2
2018-08-20T09:53:31.999Z,15.31
2018-08-20T09:54:31.291Z,15.41
2018-08-20T09:55:31.339Z,15.5
2018-08-20T09:56:31.998Z,15.59
2018-08-20T09:57:31.283Z,15.4
2018-08-20T09:58:31.406Z,15.51
2018-08-20T09:59:31.808Z,15.63
2018-08-20T10:00:31.533Z,15.55
2018-08-20T10:01:31.341Z,15.62
2018-08-20T10:02:31.295Z,15.56
2018-08-20T10:03:31.290Z,15.57
2018-08-20T10:04:31.333Z,15.59
2018-08-20T10:05:31.313Z,15.55
2018-08-20T10:06:31.376Z,15.59
2018-08-20T10:07:31.699Z,15.54
2018-08-20T10:08:32.165Z,15.52
2018-08-20T10:09:31.732Z,15.48
2018-08-20T10:10:31.887Z,15.55
2018-08-20T10:11:31.314Z,15.6
2018-08-20T10:12:31.309Z,15.71
2018-08-20T10:13:31.743Z,15.68
2018-08-20T10:14:31.274Z,15.76
2018-08-20T10:15:31.329Z,15.65
2018-08-20T10:16:31.319Z,15.63
2018-08-20T10:17:31.323Z,15.67
2018-08-20T10:18:31.984Z,15.78
2018-08-20T10:19:31.864Z,15.75
2018-08-20T10:20:31.599Z,15.83
2018-08-20T10:21:31.382Z,15.81
2018-08-20T10:22:31.883Z,15.72
2018-08-20T10:23:33.151Z,15.79
2018-08-20T10:24:31.569Z,15.73
2018-08-20T10:25:31.295Z,15.7
2018-08-20T10:26:31.463Z,15.85
2018-08-20T10:27:31.278Z,15.81
2018-08-20T10:28:31.269Z,15.76
2018-08-20T10:29:31.778Z,15.93
2018-08-20T10:30:31.736Z,15.78
2018-08-20T10:31:31.373Z,15.81
2018-08-20T10:32:31.776Z,15.76
2018-08-20T10:33:31.469Z,15.8
2018-08-20T10:34:31.306Z,15.68
2018-08-20T10:35:31.330Z,15.69
2018-08-20T10:36:31.288Z,15.77
2018-08-20T10:37:31.830Z,15.68
2018-08-20T10:38:31.334Z,15.67
2018-08-20T10:39:31.717Z,15.7
2018-08-20T10:40:31.395Z,15.79
2018-08-20T10:41:31.274Z,15.9
2018-08-20T10:42:31.568Z,15.8
2018-08-20T10:43:31.399Z,15.69
2018-08-20T10:44:31.248Z,15.64
2018-08-20T10:45:31.538Z,15.86
2018-08-20T10:46:31.272Z,15.68
2018-08-20T10:47:32.321Z,15.77
2018-08-20T10:48:31.369Z,15.78
2018-08-20T10:49:31.735Z,15.84
2018-08-20T10:50:31.381Z,15.79
2018-08-20T10:51:31.294Z,15.73
2018-08-20T10:52:31.340Z,15.82
2018-08-20T10:53:31.506Z,15.78
2018-08-20T10:54:31.290Z,15.49
2018-08-20T10:55:31.279Z,15.52
2018-08-20T10:56:31.347Z,15.53
2018-08-20T10:57:31.303Z,15.53
2018-08-20T10:58:31.393Z,15.58
2018-08-20T10:59:31.969Z,15.53
2018-08-20T11:00:31.267Z,15.54
2018-08-20T11:01:31.834Z,15.6
2018-08-20T11:02:31.299Z,15.58
2018-08-20T11:03:31.405Z,15.61
2018-08-20T11:04:31.879Z,15.59
2018-08-20T11:05:31.312Z,15.73
2018-08-20T11:06:31.329Z,15.57
2018-08-20T11:07:31.295Z,15.37
2018-08-20T11:08:31.367Z,15.43
2018-08-20T11:09:31.293Z,15.48
2018-08-20T11:10:31.313Z,15.68
2018-08-20T11:11:31.251Z,15.77
2018-08-20T11:12:31.909Z,15.81
2018-08-20T11:13:31.445Z,15.68
2018-08-20T11:14:31.414Z,15.66
2018-08-20T11:15:31.339Z,15.73
2018-08-20T11:16:31.281Z,15.5
2018-08-20T11:17:32.052Z,15.72
2018-08-20T11:18:32.196Z,15.65
2018-08-20T11:19:31.809Z,15.55
2018-08-20T11:20:31.289Z,15.62
2018-08-20T11:21:31.289Z,15.71
2018-08-20T11:22:31.696Z,15.64
2018-08-20T11:23:31.270Z,15.66
2018-08-20T11:24:31.285Z,15.82
2018-08-20T11:25:31.287Z,15.8
2018-08-20T11:26:31.257Z,15.76
2018-08-20T11:27:31.561Z,15.69
2018-08-20T11:28:31.318Z,15.76
2018-08-20T11:29:31.774Z,15.7
2018-08-20T11:30:31.284Z,15.81
2018-08-20T11:31:31.332Z,15.8
2018-08-20T11:32:31.268Z,15.89
2018-08-20T11:33:31.263Z,15.87
2018-08-20T11:34:31.403Z,15.83
2018-08-20T11:35:32.309Z,15.77
2018-08-20T11:36:31.565Z,15.71
2018-08-20T11:37:31.286Z,15.73
2018-08-20T11:38:31.249Z,15.75
2018-08-20T11:39:32.001Z,15.73
2018-08-20T11:40:31.250Z,15.67
2018-08-20T11:41:31.276Z,15.67
2018-08-20T11:42:31.311Z,15.73
2018-08-20T11:43:31.544Z,15.84
2018-08-20T11:44:31.294Z,15.97
2018-08-20T11:45:31.478Z,15.89
2018-08-20T11:46:31.243Z,15.78
2018-08-20T11:47:31.315Z,15.83
2018-08-20T11:48:31.333Z,15.87
2018-08-20T11:49:31.726Z,15.81
2018-08-20T11:50:31.276Z,15.77
2018-08-20T11:51:31.299Z,15.83
2018-08-20T11:52:31.329Z,15.88
2018-08-20T11:53:31.299Z,15.9
2018-08-20T11:54:31.342Z,15.89
2018-08-20T11:55:31.890Z,15.95
2018-08-20T11:56:31.426Z,15.92
2018-08-20T11:57:31.320Z,15.82
2018-08-20T11:58:31.297Z,15.82
2018-08-20T11:59:31.814Z,15.75
2018-08-20T12:00:31.550Z,15.71
2018-08-20T12:01:31.250Z,15.73
2018-08-20T12:02:31.451Z,15.72
2018-08-20T12:03:31.290Z,15.77
2018-08-20T12:04:31.299Z,15.72
2018-08-20T12:05:31.246Z,15.82
2018-08-20T12:06:31.314Z,15.8
2018-08-20T12:07:31.608Z,15.8
2018-08-20T12:08:31.301Z,15.8
2018-08-20T12:09:31.803Z,15.72
2018-08-20T12:10:31.327Z,15.89
2018-08-20T12:11:31.280Z,15.91
2018-08-20T12:12:31.367Z,15.89
2018-08-20T12:13:31.328Z,15.84
2018-08-20T12:14:32.207Z,15.92
2018-08-20T12:15:31.351Z,15.87
2018-08-20T12:16:31.507Z,15.73
2018-08-20T12:17:31.407Z,15.71
2018-08-20T12:18:31.520Z,15.89
2018-08-20T12:19:31.824Z,15.84
2018-08-20T12:20:31.392Z,15.87
2018-08-20T12:21:31.279Z,15.9
2018-08-20T12:22:31.786Z,15.78
2018-08-20T12:23:31.279Z,15.73
2018-08-20T12:24:31.302Z,15.76
2018-08-20T12:25:31.503Z,15.86
2018-08-20T12:26:31.265Z,15.91
2018-08-20T12:27:31.303Z,15.99
2018-08-20T12:28:31.418Z,15.91
2018-08-20T12:29:31.253Z,15.94
2018-08-20T12:30:31.429Z,15.9
2018-08-20T12:31:31.289Z,15.89
2018-08-20T12:32:31.272Z,15.91
2018-08-20T12:33:31.283Z,15.84
2018-08-20T12:34:31.302Z,15.87
2018-08-20T12:35:31.572Z,15.87
2018-08-20T12:36:31.250Z,15.81
2018-08-20T12:37:31.275Z,15.8
2018-08-20T12:38:31.257Z,15.91
2018-08-20T12:39:32.639Z,15.9
2018-08-20T12:40:31.961Z,15.92
2018-08-20T12:41:31.302Z,15.88
2018-08-20T12:42:31.597Z,15.91
2018-08-20T12:43:31.264Z,15.91
2018-08-20T12:44:31.273Z,15.94
2018-08-20T12:45:31.254Z,15.99
2018-08-20T12:46:31.283Z,16.04
2018-08-20T12:47:31.879Z,16.1
2018-08-20T12:48:31.301Z,15.97
2018-08-20T12:49:31.221Z,16.11
2018-08-20T12:50:31.264Z,15.95
2018-08-20T12:51:31.294Z,16.04
2018-08-20T12:52:31.264Z,16.03
2018-08-20T12:53:31.412Z,16.05
2018-08-20T12:54:31.280Z,16.08
2018-08-20T12:55:31.510Z,15.97